Time;durP1;ratioP1;P1;durP2;ratioP2;P2;SDS_P1;SDS_P2;PMS_P1;PMS_P2;Temp;Humidity;BMP_temperature;BMP_pressure;BME280_temperature;BME280_humidity;BME280_pressure;Samples;Min_cycle;Max_cycle;Signal;HPM_P1;HPM_P2
2022/12/22 03:28:02;;;;;;;11.63;7.53;;;9.40;99.90;;;;;;5058841;28;20047;-85
2022/12/22 03:30:28;;;;;;;10.68;8.27;;;9.50;99.90;;;;;;5055698;28;20051;-85
2022/12/22 03:32:53;;;;;;;10.90;8.70;;;9.40;99.90;;;;;;5055321;28;20072;-85
2022/12/22 03:35:19;;;;;;;10.15;8.00;;;9.40;99.90;;;;;;5054713;28;20036;-85
2022/12/22 03:37:46;;;;;;;9.55;7.93;;;9.50;99.90;;;;;;5055661;28;20021;-86
2022/12/22 03:40:12;;;;;;;9.93;8.18;;;9.40;99.90;;;;;;5054505;28;20035;-86
2022/12/22 03:48:06;;;;;;;10.40;7.80;;;9.40;99.90;;;;;;5073479;28;20511;-85
2022/12/22 03:50:32;;;;;;;10.63;8.25;;;9.50;99.90;;;;;;5055362;28;20028;-85
2022/12/22 03:52:58;;;;;;;11.88;9.10;;;9.50;99.90;;;;;;5055232;28;20024;-85
2022/12/22 03:55:25;;;;;;;12.27;9.93;;;9.50;99.90;;;;;;5054798;28;20384;-85
2022/12/22 03:57:51;;;;;;;13.00;10.50;;;9.40;99.90;;;;;;5055509;28;20464;-85
2022/12/22 04:00:19;;;;;;;13.70;10.55;;;9.50;99.90;;;;;;5073015;28;20032;-85
2022/12/22 04:02:46;;;;;;;12.73;10.65;;;9.40;99.90;;;;;;5054899;28;20032;-86
2022/12/22 04:05:12;;;;;;;13.75;10.73;;;9.40;99.90;;;;;;5054041;28;20060;-87
2022/12/22 04:07:38;;;;;;;14.00;10.48;;;9.40;99.90;;;;;;5054952;28;20063;-87
2022/12/22 04:12:55;;;;;;;13.63;10.73;;;9.40;99.90;;;;;;5073258;28;20553;-87
2022/12/22 04:15:27;;;;;;;13.63;10.57;;;9.40;99.90;;;;;;5055089;28;20036;-86
2022/12/22 04:17:54;;;;;;;13.10;10.30;;;9.40;99.90;;;;;;5055254;28;20116;-86
2022/12/22 04:20:26;;;;;;;12.98;10.35;;;9.30;99.90;;;;;;5055223;28;20062;-86
2022/12/22 04:22:52;;;;;;;13.80;11.13;;;9.30;99.90;;;;;;5073330;28;20028;-86
2022/12/22 04:25:19;;;;;;;14.23;10.55;;;9.30;99.90;;;;;;5054672;28;20051;-86
2022/12/22 04:27:44;;;;;;;14.27;11.73;;;9.40;99.90;;;;;;5055124;28;20036;-85
2022/12/22 04:30:11;;;;;;;14.43;11.02;;;9.30;99.90;;;;;;5038703;28;20376;-86
2022/12/22 04:32:36;;;;;;;13.80;10.85;;;9.30;99.90;;;;;;5054970;28;20080;-86
2022/12/22 04:35:03;;;;;;;11.75;9.45;;;9.30;99.90;;;;;;5054930;28;20067;-86
2022/12/22 04:37:29;;;;;;;14.52;11.55;;;9.30;99.90;;;;;;5054896;28;20024;-85
2022/12/22 04:39:54;;;;;;;16.40;11.90;;;9.30;99.90;;;;;;5054385;28;20051;-85
2022/12/22 04:42:20;;;;;;;14.35;11.35;;;9.30;99.90;;;;;;5072903;28;20079;-86
2022/12/22 04:44:46;;;;;;;15.77;10.73;;;9.20;99.90;;;;;;5054522;28;20049;-86
2022/12/22 04:47:11;;;;;;;13.60;10.68;;;9.30;99.90;;;;;;5054865;28;20039;-86
2022/12/22 04:49:37;;;;;;;14.30;10.48;;;9.30;99.90;;;;;;5072933;28;20108;-86
2022/12/22 04:52:03;;;;;;;13.05;9.93;;;9.30;99.90;;;;;;5054700;28;20031;-85
2022/12/22 04:54:34;;;;;;;16.08;11.77;;;9.30;99.90;;;;;;5054001;28;20043;-86
2022/12/22 04:57:00;;;;;;;13.98;10.63;;;9.30;99.90;;;;;;5073035;28;20031;-86
2022/12/22 04:59:26;;;;;;;13.27;9.95;;;9.30;99.90;;;;;;5054859;28;20131;-86
2022/12/22 05:01:51;;;;;;;13.10;9.82;;;9.30;99.90;;;;;;5055957;28;20079;-88
2022/12/22 05:04:17;;;;;;;14.32;10.25;;;9.30;99.90;;;;;;5057823;28;20032;-87
2022/12/22 05:06:43;;;;;;;14.55;9.73;;;9.30;99.90;;;;;;5058482;28;20353;-87
2022/12/22 05:09:20;;;;;;;13.25;9.95;;;9.30;99.90;;;;;;5058266;28;20029;-87
2022/12/22 05:11:46;;;;;;;12.18;8.77;;;9.40;99.90;;;;;;5076083;28;20031;-87
2022/12/22 05:14:13;;;;;;;14.27;9.75;;;9.30;99.90;;;;;;5057558;28;20036;-87
2022/12/22 05:16:38;;;;;;;12.48;8.73;;;9.40;99.90;;;;;;5058077;28;20032;-87
2022/12/22 05:19:04;;;;;;;13.15;9.02;;;9.40;99.90;;;;;;5057526;28;20029;-88
2022/12/22 05:21:30;;;;;;;11.02;8.43;;;9.40;99.90;;;;;;5058033;28;20029;-88
2022/12/22 05:23:55;;;;;;;13.35;9.38;;;9.40;99.90;;;;;;5057991;28;20539;-87
2022/12/22 05:26:23;;;;;;;12.82;9.35;;;9.40;99.90;;;;;;5058467;28;20039;-87
2022/12/22 05:28:51;;;;;;;13.32;9.73;;;9.40;99.90;;;;;;5076008;28;20029;-87
2022/12/22 05:31:22;;;;;;;14.75;10.80;;;9.40;99.90;;;;;;5076503;28;20051;-87
2022/12/22 05:33:48;;;;;;;13.80;9.75;;;9.30;99.90;;;;;;5057417;28;20050;-87
2022/12/22 05:36:14;;;;;;;16.77;11.40;;;9.30;99.90;;;;;;5057917;28;20111;-86
2022/12/22 05:38:40;;;;;;;15.50;11.25;;;9.30;99.90;;;;;;5057988;28;20023;-86
2022/12/22 05:41:06;;;;;;;14.95;11.30;;;9.30;99.90;;;;;;5058036;28;20081;-85
2022/12/22 05:43:34;;;;;;;14.07;10.40;;;9.30;99.90;;;;;;5057230;28;20364;-88
2022/12/22 05:46:04;;;;;;;17.55;10.82;;;9.30;99.90;;;;;;5056849;28;20031;-88
2022/12/22 05:48:30;;;;;;;14.20;10.15;;;9.30;99.90;;;;;;5074504;28;20028;-86
2022/12/22 05:50:55;;;;;;;15.57;10.88;;;9.30;99.90;;;;;;5057116;28;20024;-86
2022/12/22 05:53:24;;;;;;;16.65;11.20;;;9.30;99.90;;;;;;5056328;28;20487;-86
2022/12/22 05:55:51;;;;;;;15.40;10.98;;;9.40;99.90;;;;;;5056012;28;20036;-87
2022/12/22 05:58:17;;;;;;;16.67;11.05;;;9.40;99.90;;;;;;5056535;28;20469;-87
2022/12/22 06:00:43;;;;;;;14.95;11.02;;;9.40;99.90;;;;;;5055825;28;20040;-86
2022/12/22 06:03:09;;;;;;;15.52;10.85;;;9.40;99.90;;;;;;5057236;28;20502;-87
2022/12/22 06:05:35;;;;;;;14.98;10.43;;;9.40;99.90;;;;;;5057302;28;20051;-87
2022/12/22 06:08:01;;;;;;;16.23;11.23;;;9.40;99.90;;;;;;5056880;28;20462;-87
2022/12/22 06:10:27;;;;;;;17.98;11.43;;;9.40;99.90;;;;;;5057099;28;20056;-87
2022/12/22 06:12:55;;;;;;;17.63;10.98;;;9.40;99.90;;;;;;5056375;28;20074;-87
2022/12/22 06:15:20;;;;;;;17.30;11.48;;;9.30;99.90;;;;;;5071811;28;20524;-88
2022/12/22 06:17:48;;;;;;;17.75;11.90;;;9.40;99.90;;;;;;5072937;28;20066;-87
2022/12/22 06:20:17;;;;;;;20.02;13.32;;;9.40;99.90;;;;;;5074293;28;20029;-88
2022/12/22 06:22:44;;;;;;;17.55;11.93;;;9.30;99.90;;;;;;5056443;28;20013;-87
2022/12/22 06:25:10;;;;;;;21.05;12.77;;;9.40;99.90;;;;;;5055968;28;20085;-87
2022/12/22 06:27:36;;;;;;;21.17;13.93;;;9.40;99.90;;;;;;5056256;28;20037;-86
2022/12/22 06:30:01;;;;;;;19.30;12.93;;;9.40;99.90;;;;;;5054205;28;20040;-87
2022/12/22 06:32:27;;;;;;;21.73;13.48;;;9.40;99.90;;;;;;5072665;28;20041;-87
2022/12/22 06:34:53;;;;;;;22.48;13.35;;;9.30;99.90;;;;;;5073464;28;20036;-87
2022/12/22 06:37:19;;;;;;;19.83;13.40;;;9.30;99.90;;;;;;5060844;28;20415;-87
2022/12/22 06:39:48;;;;;;;21.98;13.30;;;9.40;99.90;;;;;;5056335;28;20025;-87
2022/12/22 06:45:11;;;;;;;19.77;11.95;;;9.40;99.90;;;;;;5072866;28;20050;-86
2022/12/22 06:47:39;;;;;;;22.77;13.35;;;9.40;99.90;;;;;;5074556;28;20043;-87
2022/12/22 06:50:12;;;;;;;22.40;13.57;;;9.40;99.90;;;;;;5057730;28;20123;-87
2022/12/22 06:52:40;;;;;;;22.02;14.18;;;9.30;99.90;;;;;;5057123;28;20032;-89
2022/12/22 06:55:16;;;;;;;23.25;13.50;;;9.40;99.90;;;;;;5040935;28;20055;-87
2022/12/22 06:57:42;;;;;;;21.08;12.30;;;9.40;99.90;;;;;;5056005;28;20120;-87
2022/12/22 07:00:28;;;;;;;24.90;14.07;;;9.30;99.90;;;;;;5043081;28;20056;-87
2022/12/22 07:02:54;;;;;;;24.80;13.77;;;9.30;99.90;;;;;;5035265;28;20112;-87
2022/12/22 07:05:31;;;;;;;23.60;12.90;;;9.30;99.90;;;;;;5035623;28;20518;-87
2022/12/22 07:08:18;;;;;;;21.63;11.45;;;9.30;99.90;;;;;;5036037;28;20029;-87
2022/12/22 07:11:00;;;;;;;20.55;11.27;;;9.30;99.90;;;;;;5037330;28;20052;-88
2022/12/22 07:13:33;;;;;;;21.65;11.65;;;9.30;99.90;;;;;;5035765;28;20516;-87
2022/12/22 07:16:12;;;;;;;18.67;10.77;;;9.30;99.90;;;;;;5039547;28;20020;-87
2022/12/22 07:18:40;;;;;;;18.42;10.25;;;9.20;99.90;;;;;;5055625;28;20028;-87
2022/12/22 07:21:09;;;;;;;16.73;9.55;;;9.20;99.90;;;;;;5055434;28;20123;-88
2022/12/22 07:23:35;;;;;;;17.88;9.38;;;9.10;99.90;;;;;;5072477;28;20035;-90
2022/12/22 07:26:03;;;;;;;17.42;9.85;;;9.10;99.90;;;;;;5055419;28;20029;-87
2022/12/22 07:28:54;;;;;;;16.75;9.98;;;9.10;99.90;;;;;;5054651;28;20021;-89
2022/12/22 07:31:23;;;;;;;16.90;9.88;;;9.00;99.90;;;;;;5040045;28;20036;-87
2022/12/22 07:33:50;;;;;;;15.13;8.70;;;9.10;99.90;;;;;;5037684;28;20049;-88
2022/12/22 07:36:32;;;;;;;16.50;9.70;;;9.10;99.90;;;;;;5055547;28;20098;-87
2022/12/22 07:39:01;;;;;;;16.70;9.95;;;9.10;99.90;;;;;;5055339;28;20483;-88
2022/12/22 07:44:16;;;;;;;17.70;10.57;;;9.10;99.90;;;;;;5063518;28;20066;-88
2022/12/22 07:46:44;;;;;;;18.23;10.57;;;9.10;99.90;;;;;;5055574;28;20082;-87
2022/12/22 07:51:56;;;;;;;19.10;11.18;;;9.10;99.90;;;;;;5075883;28;20093;-87
2022/12/22 07:54:23;;;;;;;24.10;13.02;;;9.10;99.90;;;;;;5056917;28;20602;-86
2022/12/22 07:56:49;;;;;;;33.45;18.45;;;9.10;99.90;;;;;;5054850;28;20467;-88
2022/12/22 07:59:15;;;;;;;32.60;18.55;;;9.10;99.90;;;;;;5054998;28;20029;-87
2022/12/22 08:01:41;;;;;;;32.83;18.17;;;9.10;99.90;;;;;;5054634;28;20131;-87
2022/12/22 08:04:21;;;;;;;33.63;19.33;;;9.10;99.90;;;;;;5054742;28;20071;-87
2022/12/22 08:06:48;;;;;;;35.65;19.45;;;9.00;99.90;;;;;;5073249;28;20043;-87
2022/12/22 08:09:26;;;;;;;38.50;20.17;;;9.00;99.90;;;;;;5054732;28;20484;-87
2022/12/22 08:12:00;;;;;;;37.05;18.38;;;9.00;99.90;;;;;;5055061;28;20032;-87
2022/12/22 08:14:25;;;;;;;34.38;18.85;;;9.00;99.90;;;;;;5054685;28;20067;-87
2022/12/22 08:16:54;;;;;;;41.15;20.73;;;9.00;99.90;;;;;;5073225;28;20063;-87
2022/12/22 08:19:26;;;;;;;38.97;18.67;;;9.00;99.90;;;;;;5054996;28;20025;-86
2022/12/22 08:21:54;;;;;;;27.77;15.10;;;9.00;99.90;;;;;;5072649;28;20541;-87
2022/12/22 08:24:23;;;;;;;31.88;17.17;;;9.00;99.90;;;;;;5072096;28;20036;-86
2022/12/22 08:26:55;;;;;;;32.38;15.63;;;9.10;99.90;;;;;;5054717;28;20468;-87
2022/12/22 08:29:48;;;;;;;34.72;16.38;;;9.10;99.90;;;;;;5052957;28;20021;-86
2022/12/22 08:32:20;;;;;;;32.40;16.53;;;9.10;99.90;;;;;;5035078;28;20025;-87
2022/12/22 08:34:51;;;;;;;30.33;15.32;;;9.10;99.90;;;;;;5044807;28;20655;-86
2022/12/22 08:37:21;;;;;;;30.98;15.05;;;9.20;99.90;;;;;;5057122;28;20464;-85
2022/12/22 08:39:52;;;;;;;32.83;16.23;;;9.20;99.90;;;;;;5058906;28;20032;-86
2022/12/22 08:42:28;;;;;;;31.20;14.93;;;9.30;99.90;;;;;;5058816;28;20024;-86
2022/12/22 08:44:54;;;;;;;29.83;15.80;;;9.20;99.90;;;;;;5057583;28;20032;-87
2022/12/22 08:47:22;;;;;;;29.80;14.35;;;9.10;99.90;;;;;;5058320;28;20376;-86
2022/12/22 08:49:50;;;;;;;30.60;14.50;;;9.10;99.90;;;;;;5058185;28;20020;-87
2022/12/22 08:52:16;;;;;;;30.40;14.98;;;9.10;99.90;;;;;;5076146;28;20025;-86
2022/12/22 08:54:42;;;;;;;31.23;15.68;;;9.10;99.90;;;;;;5058320;28;20025;-86
2022/12/22 08:57:14;;;;;;;27.15;14.70;;;9.10;99.90;;;;;;5076406;28;20024;-86
2022/12/22 08:59:40;;;;;;;28.80;14.13;;;9.00;99.90;;;;;;5057990;28;20423;-86
2022/12/22 09:02:06;;;;;;;28.67;14.55;;;9.00;99.90;;;;;;5058504;28;20507;-86
2022/12/22 09:04:33;;;;;;;27.20;13.70;;;8.90;99.90;;;;;;5052995;28;20041;-87
2022/12/22 09:07:04;;;;;;;32.97;15.40;;;8.90;99.90;;;;;;5050631;28;20040;-86
2022/12/22 09:09:33;;;;;;;31.27;15.20;;;8.90;99.90;;;;;;5058128;28;20032;-86
2022/12/22 09:12:05;;;;;;;33.50;16.25;;;8.90;99.90;;;;;;5076576;28;20112;-87
2022/12/22 09:14:49;;;;;;;32.38;15.35;;;8.80;99.90;;;;;;5076031;28;20475;-86
2022/12/22 09:17:14;;;;;;;39.08;17.80;;;8.80;99.90;;;;;;5058296;28;20032;-87
2022/12/22 09:19:40;;;;;;;40.42;18.95;;;8.80;99.90;;;;;;5058002;28;20020;-87
2022/12/22 09:22:10;;;;;;;37.83;16.88;;;8.80;99.90;;;;;;5057973;28;20052;-87
2022/12/22 09:24:36;;;;;;;43.72;19.67;;;8.80;99.90;;;;;;5058012;28;20108;-86
2022/12/22 09:27:02;;;;;;;38.95;18.40;;;8.80;99.90;;;;;;5057625;28;20020;-86
2022/12/22 09:29:31;;;;;;;34.75;17.10;;;8.80;99.90;;;;;;5057554;28;20025;-86
2022/12/22 09:31:56;;;;;;;36.58;17.40;;;8.90;99.90;;;;;;5037092;28;20101;-85
2022/12/22 09:34:22;;;;;;;36.00;18.23;;;8.90;99.90;;;;;;5054842;28;20388;-86
2022/12/22 09:36:48;;;;;;;37.78;18.25;;;9.10;99.90;;;;;;5065859;28;20032;-87
2022/12/22 09:39:17;;;;;;;47.08;20.88;;;9.50;99.90;;;;;;5075141;28;20024;-86
2022/12/22 09:41:50;;;;;;;47.38;22.77;;;10.00;99.90;;;;;;5057414;28;20072;-86
2022/12/22 09:44:46;;;;;;;41.05;19.77;;;10.50;99.90;;;;;;5057071;28;20388;-86
2022/12/22 09:47:26;;;;;;;40.03;19.58;;;10.70;99.90;;;;;;5074622;28;20032;-87
2022/12/22 09:49:57;;;;;;;36.87;18.30;;;10.30;99.90;;;;;;5057308;28;20017;-86
2022/12/22 09:52:38;;;;;;;31.05;14.95;;;9.90;99.90;;;;;;5057004;28;20029;-86
2022/12/22 09:55:35;;;;;;;33.85;14.95;;;9.60;99.90;;;;;;5057080;28;20044;-86
2022/12/22 09:58:15;;;;;;;40.17;19.00;;;9.50;99.90;;;;;;5056948;28;20046;-86
2022/12/22 10:00:42;;;;;;;44.00;19.48;;;9.30;99.90;;;;;;5055171;28;20476;-87
2022/12/22 10:03:32;;;;;;;39.38;17.90;;;9.20;99.90;;;;;;5055984;28;20514;-86
2022/12/22 10:06:22;;;;;;;40.83;18.05;;;9.30;99.90;;;;;;5056648;28;20073;-86
2022/12/22 10:08:52;;;;;;;39.22;17.33;;;9.80;99.90;;;;;;5056842;28;20059;-85
2022/12/22 10:11:18;;;;;;;34.80;15.18;;;9.80;99.90;;;;;;5056573;28;20047;-86
2022/12/22 10:13:53;;;;;;;27.15;12.90;;;9.60;99.90;;;;;;5074381;28;20048;-85
2022/12/22 10:16:22;;;;;;;28.45;12.32;;;9.30;99.90;;;;;;5074267;28;20107;-87
2022/12/22 10:19:14;;;;;;;29.05;12.98;;;9.10;99.90;;;;;;5074187;28;20035;-85
2022/12/22 10:21:50;;;;;;;35.90;16.00;;;8.90;99.90;;;;;;5056650;28;20031;-86
2022/12/22 10:24:30;;;;;;;34.08;15.40;;;8.80;99.90;;;;;;5056712;28;20123;-85
2022/12/22 10:26:57;;;;;;;33.70;14.70;;;9.20;99.90;;;;;;5056165;28;20025;-86
2022/12/22 10:29:25;;;;;;;32.35;13.73;;;9.80;99.90;;;;;;5055940;28;20174;-86
2022/12/22 10:32:01;;;;;;;35.40;15.38;;;10.10;99.90;;;;;;5055575;28;20043;-85
2022/12/22 10:34:30;;;;;;;32.63;13.55;;;10.20;99.90;;;;;;5055166;28;20105;-85
2022/12/22 10:37:02;;;;;;;29.05;13.95;;;10.00;99.90;;;;;;5056092;28;20166;-87
2022/12/22 10:39:31;;;;;;;30.37;14.03;;;9.80;99.90;;;;;;5056029;28;20358;-89
2022/12/22 10:42:12;;;;;;;25.80;13.15;;;9.50;99.90;;;;;;5056172;28;20059;-85
2022/12/22 10:44:43;;;;;;;29.33;12.27;;;9.30;99.90;;;;;;5056090;28;20059;-87
2022/12/22 10:47:29;;;;;;;;;;;;;;;;;;;;;
2022/12/22 10:49:59;;;;;;;27.52;12.77;;;9.10;99.90;;;;;;5055869;28;20047;-86
2022/12/22 10:52:28;;;;;;;27.88;12.93;;;9.00;99.90;;;;;;5073735;28;20424;-86
2022/12/22 10:55:13;;;;;;;24.65;11.95;;;9.00;99.90;;;;;;5073477;28;20029;-86
2022/12/22 10:57:42;;;;;;;23.08;10.52;;;8.90;99.90;;;;;;5055813;28;20036;-85
2022/12/22 11:00:29;;;;;;;24.30;11.68;;;8.90;99.90;;;;;;5074205;28;20103;-86
2022/12/22 11:02:59;;;;;;;25.17;12.48;;;8.90;99.90;;;;;;5052280;28;20040;-86
2022/12/22 11:05:26;;;;;;;31.55;14.05;;;9.00;99.90;;;;;;5036738;28;20064;-85
2022/12/22 11:07:52;;;;;;;25.50;13.73;;;9.10;99.90;;;;;;5038230;28;20061;-86
2022/12/22 11:11:03;;;;;;;24.77;12.45;;;9.10;99.90;;;;;;5055759;28;20024;-87
2022/12/22 11:14:02;;;;;;;27.80;13.63;;;9.10;99.90;;;;;;5072385;28;20067;-86
2022/12/22 11:16:59;;;;;;;32.33;16.02;;;9.30;99.90;;;;;;5055052;28;20123;-86
2022/12/22 11:19:48;;;;;;;30.58;15.40;;;9.40;99.90;;;;;;5062026;28;20016;-86
2022/12/22 11:22:39;;;;;;;31.25;14.48;;;9.40;99.90;;;;;;5054856;28;20020;-86
2022/12/22 11:25:34;;;;;;;32.88;16.77;;;9.50;99.90;;;;;;5055249;28;20131;-86
2022/12/22 11:28:28;;;;;;;31.73;17.00;;;9.60;99.90;;;;;;4966830;28;20081;-86
2022/12/22 11:31:04;;;;;;;34.95;17.63;;;9.90;99.90;;;;;;5053539;28;20032;-86
2022/12/22 11:34:02;;;;;;;31.98;16.67;;;9.80;99.90;;;;;;5052486;28;20047;-86
2022/12/22 11:36:44;;;;;;;29.85;15.95;;;10.10;99.90;;;;;;5049150;28;20029;-87
2022/12/22 11:39:23;;;;;;;33.05;18.10;;;10.20;99.90;;;;;;5049733;28;20093;-86
2022/12/22 11:41:59;;;;;;;39.55;21.40;;;10.00;99.90;;;;;;5055101;28;20021;-88
2022/12/22 11:44:56;;;;;;;32.15;18.92;;;9.70;99.90;;;;;;5054784;28;20082;-88
2022/12/22 11:47:47;;;;;;;35.17;19.02;;;9.50;99.90;;;;;;5045850;28;20526;-87
2022/12/22 11:50:29;;;;;;;33.40;19.60;;;9.50;99.90;;;;;;5046987;28;20046;-86
2022/12/22 11:53:14;;;;;;;34.85;19.27;;;9.50;99.90;;;;;;5054371;28;20047;-85
2022/12/22 11:56:33;;;;;;;33.53;19.58;;;9.40;99.90;;;;;;5054487;28;20669;-86
2022/12/22 11:59:22;;;;;;;32.75;17.67;;;9.30;99.90;;;;;;5017566;28;20488;-85
2022/12/22 12:02:11;;;;;;;32.92;18.92;;;9.50;99.90;;;;;;5054499;28;20067;-87
2022/12/22 12:05:01;;;;;;;34.10;19.00;;;9.70;99.90;;;;;;5063442;28;20036;-86
2022/12/22 12:07:37;;;;;;;32.92;19.65;;;9.90;99.90;;;;;;5054293;28;20460;-86
2022/12/22 12:10:26;;;;;;;32.13;18.85;;;10.10;99.90;;;;;;5054895;28;20579;-85
2022/12/22 12:13:04;;;;;;;33.58;18.67;;;10.20;99.90;;;;;;5075679;28;20043;-86
2022/12/22 12:15:52;;;;;;;32.72;18.90;;;10.20;99.90;;;;;;5065510;28;20111;-87
2022/12/22 12:18:40;;;;;;;;;;;;;;;;;;;;;
2022/12/22 12:21:33;;;;;;;30.08;16.17;;;10.10;99.90;;;;;;5075435;28;20043;-86
2022/12/22 12:24:17;;;;;;;27.98;15.80;;;10.10;99.90;;;;;;5055610;28;20074;-88
2022/12/22 12:27:10;;;;;;;24.30;14.80;;;10.00;99.90;;;;;;5055693;28;20025;-85
2022/12/22 12:29:42;;;;;;;24.00;14.57;;;10.00;99.90;;;;;;5053825;28;20025;-86
2022/12/22 12:32:24;;;;;;;21.57;13.37;;;10.10;99.90;;;;;;5074928;28;20036;-87
2022/12/22 12:34:59;;;;;;;23.17;13.75;;;10.10;99.90;;;;;;5034097;28;20156;-89
2022/12/22 12:37:38;;;;;;;24.40;16.35;;;10.10;99.90;;;;;;5036394;28;20090;-86
2022/12/22 12:40:32;;;;;;;27.73;16.58;;;10.10;99.90;;;;;;5051050;28;20153;-88
2022/12/22 12:42:58;;;;;;;;;;;10.10;99.90;;;;;;5034978;28;20038;-86
2022/12/22 12:45:39;;;;;;;26.00;16.05;;;10.00;99.90;;;;;;5035790;28;20234;-85
2022/12/22 12:48:23;;;;;;;23.60;14.95;;;10.00;99.90;;;;;;5050546;28;20469;-87
2022/12/22 12:50:52;;;;;;;;;;;10.00;99.90;;;;;;5030088;28;20421;-85
2022/12/22 12:53:25;;;;;;;22.33;13.50;;;10.00;99.90;;;;;;5014754;28;20365;-86
2022/12/22 12:55:59;;;;;;;24.85;14.65;;;10.00;99.90;;;;;;5014985;28;20030;-85
2022/12/22 12:58:36;;;;;;;21.52;13.25;;;10.00;99.90;;;;;;5015422;28;20025;-86
2022/12/22 13:01:03;;;;;;;22.70;13.65;;;10.00;99.90;;;;;;5034275;28;20079;-86
2022/12/22 13:03:28;;;;;;;24.40;11.27;;;10.00;99.90;;;;;;5036017;28;20372;-86
2022/12/22 13:05:57;;;;;;;19.77;11.48;;;9.90;99.90;;;;;;5031085;28;20075;-87
2022/12/22 13:08:29;;;;;;;21.17;12.75;;;9.80;99.90;;;;;;5028752;28;20040;-87
2022/12/22 13:10:54;;;;;;;21.57;11.87;;;9.80;99.90;;;;;;5034436;28;20028;-84
2022/12/22 13:13:20;;;;;;;22.30;13.48;;;9.70;99.90;;;;;;5036098;28;20029;-85
2022/12/22 13:15:59;;;;;;;22.42;14.52;;;9.60;99.90;;;;;;5038859;28;20042;-84
2022/12/22 13:18:24;;;;;;;26.48;15.65;;;9.50;99.90;;;;;;5031344;28;20381;-86
2022/12/22 13:21:25;;;;;;;22.20;14.52;;;9.40;99.90;;;;;;5029365;28;20033;-86
2022/12/22 13:23:53;;;;;;;24.40;14.70;;;9.30;99.90;;;;;;5049974;28;20035;-86
2022/12/22 13:26:39;;;;;;;28.65;17.35;;;9.40;99.90;;;;;;5030295;28;20037;-86
2022/12/22 13:29:30;;;;;;;27.10;17.95;;;9.30;99.90;;;;;;5032958;28;20418;-89
2022/12/22 13:32:21;;;;;;;26.45;17.20;;;9.30;99.90;;;;;;5032525;28;20506;-86
2022/12/22 13:35:01;;;;;;;23.02;15.38;;;9.30;99.90;;;;;;5053340;28;20043;-87
2022/12/22 13:37:30;;;;;;;25.05;16.70;;;9.30;99.90;;;;;;5054088;28;20020;-86
2022/12/22 13:40:07;;;;;;;27.48;17.98;;;9.30;99.90;;;;;;5052963;28;20029;-86
2022/12/22 13:42:48;;;;;;;27.25;17.60;;;9.30;99.90;;;;;;5053542;28;20103;-86
2022/12/22 13:45:46;;;;;;;31.95;20.63;;;9.30;99.90;;;;;;5053333;28;20045;-86
2022/12/22 13:48:39;;;;;;;32.78;20.95;;;9.30;99.90;;;;;;5053443;28;20032;-86
2022/12/22 13:51:39;;;;;;;;;;;;;;;;;;;;;
2022/12/22 13:54:31;;;;;;;34.20;21.48;;;9.30;99.90;;;;;;5049801;28;20064;-86
2022/12/22 13:57:41;;;;;;;34.20;21.08;;;9.20;99.90;;;;;;5053879;28;20033;-87
2022/12/22 14:00:28;;;;;;;31.42;20.90;;;9.30;99.90;;;;;;5017576;28;20407;-85
2022/12/22 14:04:01;;;;;;;;;;;;;;;;;;;;;
2022/12/22 14:06:44;;;;;;;33.30;21.60;;;9.40;99.90;;;;;;5030575;28;20017;-87
2022/12/22 14:09:16;;;;;;;30.85;19.83;;;9.40;99.90;;;;;;5056933;28;20025;-86
2022/12/22 14:12:07;;;;;;;32.95;22.85;;;9.40;99.90;;;;;;5053133;28;20025;-83
2022/12/22 14:14:53;;;;;;;38.35;25.48;;;9.40;99.90;;;;;;5043668;28;20053;-84
2022/12/22 14:17:40;;;;;;;35.97;24.10;;;9.30;99.90;;;;;;5048578;28;20075;-84
2022/12/22 14:20:21;;;;;;;32.70;21.40;;;9.30;99.90;;;;;;5044579;28;20044;-86
2022/12/22 14:23:23;;;;;;;35.30;22.70;;;9.30;99.90;;;;;;5048574;28;20033;-83
2022/12/22 14:25:51;;;;;;;27.38;19.15;;;9.30;99.90;;;;;;5048964;28;20021;-86
2022/12/22 14:28:42;;;;;;;29.83;20.02;;;9.30;99.90;;;;;;5038275;28;20087;-86
2022/12/22 14:31:13;;;;;;;31.90;20.20;;;9.30;99.90;;;;;;5048734;28;20103;-85
2022/12/22 14:34:26;;;;;;;27.15;18.20;;;9.30;99.90;;;;;;5062452;28;20078;-84
2022/12/22 14:37:03;;;;;;;29.77;19.65;;;9.30;99.90;;;;;;5052653;28;20032;-86
2022/12/22 14:39:55;;;;;;;30.52;21.73;;;9.30;99.90;;;;;;5069648;28;20480;-85
2022/12/22 14:42:30;;;;;;;27.77;19.55;;;9.30;99.90;;;;;;5057115;28;20366;-85
2022/12/22 14:44:57;;;;;;;27.20;19.58;;;9.30;99.90;;;;;;5019885;28;20037;-85
2022/12/22 14:47:30;;;;;;;27.70;19.10;;;9.30;99.90;;;;;;5054067;28;20131;-86
2022/12/22 14:53:42;;;;;;;26.95;17.85;;;9.30;99.90;;;;;;5069950;28;20143;-84
2022/12/22 14:56:00;;;;;;;28.10;18.95;;;9.20;99.90;;;;;;5067873;28;20112;-87
2022/12/22 14:58:41;;;;;;;28.70;19.08;;;9.30;99.90;;;;;;5054010;28;20039;-87
2022/12/22 15:01:15;;;;;;;28.27;19.08;;;9.30;99.90;;;;;;5050781;28;20032;-87
2022/12/22 15:04:11;;;;;;;26.67;18.13;;;9.30;99.90;;;;;;5036614;28;20032;-87
2022/12/22 15:06:47;;;;;;;25.88;18.05;;;9.30;99.90;;;;;;5042861;28;20028;-85
2022/12/22 15:09:13;;;;;;;30.05;19.77;;;9.20;99.90;;;;;;5052666;28;20028;-87
2022/12/22 15:11:50;;;;;;;26.88;18.70;;;9.20;99.90;;;;;;5071224;28;20495;-85
2022/12/22 15:14:36;;;;;;;23.85;17.00;;;9.20;99.90;;;;;;5053128;28;20047;-85
2022/12/22 15:17:03;;;;;;;27.25;19.02;;;9.20;99.90;;;;;;5050912;28;20380;-86
2022/12/22 15:19:43;;;;;;;24.40;17.17;;;9.10;99.90;;;;;;5052947;28;20361;-85
2022/12/22 15:22:14;;;;;;;28.85;19.23;;;9.10;99.90;;;;;;5036340;28;20052;-87
2022/12/22 15:24:52;;;;;;;;;;;;;;;;;;;;;
2022/12/22 15:27:29;;;;;;;26.73;18.58;;;9.00;99.90;;;;;;5062507;28;20023;-86
2022/12/22 15:30:04;;;;;;;22.13;16.90;;;9.00;99.90;;;;;;5038219;28;20029;-86
2022/12/22 15:32:39;;;;;;;27.50;18.95;;;9.00;99.90;;;;;;5070858;28;20082;-85
2022/12/22 15:35:29;;;;;;;27.33;19.02;;;9.00;99.90;;;;;;5071414;28;20044;-87
2022/12/22 15:38:02;;;;;;;28.35;18.98;;;9.00;99.90;;;;;;5053735;28;20025;-88
2022/12/22 15:40:28;;;;;;;31.45;21.45;;;8.90;99.90;;;;;;5038487;28;20117;-87
2022/12/22 15:43:07;;;;;;;;;;;;;;;;;;;;;
2022/12/22 15:45:42;;;;;;;33.95;23.33;;;8.90;99.90;;;;;;5070709;28;20028;-87
2022/12/22 15:48:13;;;;;;;35.30;22.23;;;8.90;99.90;;;;;;5070956;28;20027;-85
2022/12/22 15:50:41;;;;;;;29.15;20.73;;;8.90;99.90;;;;;;5052731;28;20094;-85
2022/12/22 15:53:12;;;;;;;29.45;19.98;;;8.90;99.90;;;;;;5052361;28;20036;-85
2022/12/22 15:55:45;;;;;;;31.55;22.58;;;8.90;99.90;;;;;;5027712;28;20063;-85
2022/12/22 15:58:24;;;;;;;;;;;;;;;;;;;;;
2022/12/22 16:01:03;;;;;;;34.10;22.73;;;8.90;99.90;;;;;;5068549;28;20490;-86
2022/12/22 16:03:29;;;;;;;30.15;21.58;;;8.90;99.90;;;;;;5024110;28;20044;-87
2022/12/22 16:06:00;;;;;;;35.78;23.08;;;8.90;99.90;;;;;;5050916;28;20032;-85
2022/12/22 16:08:32;;;;;;;33.13;22.02;;;8.90;99.90;;;;;;5070189;28;20061;-85
2022/12/22 16:11:06;;;;;;;31.77;22.05;;;8.80;99.90;;;;;;5051149;28;20036;-85
2022/12/22 16:13:32;;;;;;;29.40;19.90;;;8.70;99.90;;;;;;5049998;28;20029;-86
2022/12/22 16:16:07;;;;;;;33.85;23.13;;;8.70;99.90;;;;;;5052094;28;20060;-86
2022/12/22 16:18:39;;;;;;;29.30;20.48;;;8.70;99.90;;;;;;5068701;28;20020;-85
2022/12/22 16:21:27;;;;;;;28.80;19.27;;;8.70;99.90;;;;;;5043217;28;20040;-87
2022/12/22 16:23:55;;;;;;;25.90;18.45;;;8.60;99.90;;;;;;5023755;28;20052;-87
2022/12/22 16:26:22;;;;;;;33.17;21.83;;;8.60;99.90;;;;;;5046795;28;20067;-84
2022/12/22 16:29:18;;;;;;;29.20;20.02;;;8.60;99.90;;;;;;5050902;28;20043;-86
2022/12/22 16:31:50;;;;;;;27.52;18.75;;;8.60;99.90;;;;;;5034695;28;20488;-87
2022/12/22 16:34:16;;;;;;;24.17;17.70;;;8.60;99.90;;;;;;5043090;28;20566;-86
2022/12/22 16:36:44;;;;;;;29.45;18.95;;;8.60;99.90;;;;;;5049203;28;20069;-86
2022/12/22 16:39:10;;;;;;;29.65;19.63;;;8.50;99.90;;;;;;5023839;28;20041;-86
2022/12/22 16:41:43;;;;;;;27.25;18.27;;;8.50;99.90;;;;;;5045171;28;20025;-86
2022/12/22 16:44:17;;;;;;;25.70;16.75;;;8.50;99.90;;;;;;5048139;28;20037;-87
2022/12/22 16:46:47;;;;;;;27.88;18.73;;;8.50;99.90;;;;;;5049372;28;20056;-86
2022/12/22 16:49:17;;;;;;;25.33;17.15;;;8.50;99.90;;;;;;5044295;28;20075;-86
2022/12/22 16:51:49;;;;;;;31.48;20.17;;;8.50;99.90;;;;;;5046718;28;20021;-86
2022/12/22 16:54:16;;;;;;;30.00;18.88;;;8.60;99.90;;;;;;5042423;28;20401;-87
2022/12/22 16:56:50;;;;;;;28.38;18.70;;;8.50;99.90;;;;;;5048368;28;20036;-86
2022/12/22 16:59:28;;;;;;;26.15;17.05;;;8.50;99.90;;;;;;5013000;28;20310;-87
2022/12/22 17:01:57;;;;;;;29.05;17.55;;;8.50;99.90;;;;;;5050449;28;20036;-86
2022/12/22 17:07:13;;;;;;;29.65;18.23;;;8.50;99.90;;;;;;5047964;28;20090;-86
2022/12/22 17:09:57;;;;;;;27.45;17.48;;;8.40;99.90;;;;;;5047376;28;20029;-87
2022/12/22 17:12:31;;;;;;;23.17;15.48;;;8.50;99.90;;;;;;5050519;28;20097;-87